KAL701 RKSS-RKPK
Flight info
| Callsign | KAL701 |
|---|---|
| Flight time | N/A |
| Altitude | 23000 |
| Route | OSPOT2T OSPOT Y782 TGU DCT MASTA GAYHA3 |
| Aircraft | B738/M-SDE2E3FGHIRWXY/LB1 |
Departure
| Time | N/A |
|---|---|
| Airport | Gimpo International Airport (RKSS) |
Arrival
| Time | 2026-04-30 09:36 |
|---|---|
| Airport | Gimhae International Airport (RKPK) |
| Time | Latitude | Longitude | Altitude | Speed | Heading |
|---|---|---|---|---|---|
| 2026-04-30 09:35 | 35.17681 | 128.93736 | 24 ft | 9 kts | 105° |
| 2026-04-30 09:36 | 35.16964 | 128.94620 | 24 ft | 8 kts | 112° |
| 2026-04-30 09:36 | 35.16948 | 128.94687 | 24 ft | 7 kts | 86° |
| 2026-04-30 09:36 | 35.16973 | 128.94731 | 24 ft | 5 kts | 29° |
| 2026-04-30 09:36 | 35.17005 | 128.94753 | 24 ft | 4 kts | 28° |
| 2026-04-30 09:37 | 35.17013 | 128.94757 | 24 ft | 0 kts | 26° |
| 2026-04-30 09:37 | 35.17014 | 128.94757 | 24 ft | 0 kts | 26° |
| 2026-04-30 10:09 | 35.16559 | 128.93878 | 25 ft | 0 kts | 354° |
| 2026-04-30 10:09 | 35.11760 | 128.94498 | 962 ft | 144 kts | 354° |
| 2026-04-30 10:09 | 35.11892 | 128.94481 | 901 ft | 146 kts | 354° |
| 2026-04-30 10:09 | 35.12965 | 128.94324 | 1007 ft | 168 kts | 352° |
| 2026-04-30 10:10 | 35.14259 | 128.94107 | 711 ft | 191 kts | 353° |
| 2026-04-30 10:10 | 35.15563 | 128.93977 | 353 ft | 186 kts | 355° |
| 2026-04-30 10:10 | 35.16826 | 128.93835 | 54 ft | 172 kts | 355° |
| 2026-04-30 10:10 | 35.17926 | 128.93723 | 25 ft | 146 kts | 355° |
| 2026-04-30 10:11 | 35.18507 | 128.93655 | 25 ft | 129 kts | 354° |
| 2026-04-30 10:11 | 35.23851 | 128.92935 | 1334 ft | 149 kts | 174° |
| 2026-04-30 10:11 | 35.22795 | 128.93074 | 912 ft | 151 kts | 173° |
| 2026-04-30 10:11 | 35.21761 | 128.93224 | 976 ft | 164 kts | 173° |
| 2026-04-30 10:12 | 35.20443 | 128.93417 | 781 ft | 217 kts | 174° |
| 2026-04-30 10:12 | 35.19051 | 128.93610 | 537 ft | 183 kts | 171° |
| 2026-04-30 10:12 | 35.17962 | 128.94046 | 527 ft | 150 kts | 152° |
| 2026-04-30 10:12 | 35.17121 | 128.94704 | 469 ft | 144 kts | 145° |
| 2026-04-30 10:13 | 35.16306 | 128.95412 | 407 ft | 149 kts | 143° |
| 2026-04-30 10:13 | 35.15457 | 128.96104 | 561 ft | 145 kts | 157° |
| 2026-04-30 10:13 | 35.14497 | 128.96126 | 733 ft | 147 kts | 203° |
| 2026-04-30 10:13 | 35.13808 | 128.95161 | 652 ft | 155 kts | 255° |
| 2026-04-30 10:14 | 35.14053 | 128.94000 | 499 ft | 146 kts | 318° |
| 2026-04-30 10:14 | 35.15052 | 128.93832 | 342 ft | 170 kts | 12° |
| 2026-04-30 10:14 | 35.17312 | 128.93802 | 26 ft | 145 kts | 359° |
| 2026-04-30 10:15 | 35.17868 | 128.93784 | 24 ft | 107 kts | 359° |
| 2026-04-30 10:15 | 35.11798 | 128.94487 | 882 ft | 74 kts | 353° |
| 2026-04-30 10:16 | 35.12254 | 128.94424 | 843 ft | 63 kts | 353° |
| 2026-04-30 10:16 | 35.12707 | 128.94377 | 833 ft | 68 kts | 352° |
| 2026-04-30 10:16 | 35.13197 | 128.94316 | 779 ft | 70 kts | 352° |
| 2026-04-30 10:17 | 35.14146 | 128.94185 | 550 ft | 67 kts | 353° |
| 2026-04-30 10:17 | 35.15076 | 128.94073 | 357 ft | 68 kts | 352° |
| 2026-04-30 10:17 | 35.15550 | 128.94014 | 255 ft | 67 kts | 352° |
| 2026-04-30 10:18 | 35.16014 | 128.93953 | 178 ft | 65 kts | 351° |
| 2026-04-30 10:18 | 35.16472 | 128.93889 | 72 ft | 66 kts | 352° |
| 2026-04-30 10:18 | 35.16922 | 128.93829 | 20 ft | 57 kts | 355° |
| 2026-04-30 10:19 | 35.11731 | 128.94499 | 909 ft | 72 kts | 353° |
| 2026-04-30 10:19 | 35.12264 | 128.94423 | 796 ft | 80 kts | 352° |
| 2026-04-30 10:19 | 35.12829 | 128.94341 | 711 ft | 82 kts | 353° |